createdAt,value
2018-05-13T00:01:34.845Z,8.43
2018-05-13T00:04:02.435Z,8.10
2018-05-13T00:06:29.967Z,8.33
2018-05-13T00:08:58.427Z,8.50
2018-05-13T00:11:26.750Z,8.37
2018-05-13T00:13:54.710Z,8.20
2018-05-13T00:16:22.297Z,7.97
2018-05-13T00:18:50.274Z,8.27
2018-05-13T00:21:17.840Z,8.57
2018-05-13T00:23:45.406Z,8.20
2018-05-13T00:26:13.736Z,8.70
2018-05-13T00:28:41.299Z,9.03
2018-05-13T00:31:08.886Z,8.60
2018-05-13T00:33:36.659Z,8.50
2018-05-13T00:36:04.557Z,8.97
2018-05-13T00:38:33.603Z,10.13
2018-05-13T00:41:01.718Z,10.23
2018-05-13T00:43:29.281Z,10.38
2018-05-13T00:45:56.812Z,10.85
2018-05-13T00:48:24.358Z,10.10
2018-05-13T00:50:52.283Z,10.70
2018-05-13T00:53:19.852Z,10.57
2018-05-13T00:55:48.398Z,10.70
2018-05-13T00:58:15.950Z,10.27
2018-05-13T01:00:43.500Z,10.13
2018-05-13T01:03:11.067Z,12.50
2018-05-13T01:05:38.612Z,13.20
2018-05-13T01:08:06.248Z,13.07
2018-05-13T01:10:34.224Z,13.20
2018-05-13T01:13:02.189Z,12.93
2018-05-13T01:15:30.182Z,12.70
2018-05-13T01:17:59.057Z,13.73
2018-05-13T01:20:26.998Z,13.33
2018-05-13T01:22:54.552Z,12.73
2018-05-13T01:25:22.094Z,12.43
2018-05-13T01:27:50.271Z,12.30
2018-05-13T01:30:17.855Z,11.43
2018-05-13T01:32:46.555Z,13.77
2018-05-13T01:35:14.132Z,11.83
2018-05-13T01:37:41.748Z,12.77
2018-05-13T01:40:09.327Z,13.33
2018-05-13T01:42:37.809Z,14.23
2018-05-13T01:45:05.379Z,13.10
2018-05-13T01:47:33.420Z,12.53
2018-05-13T01:50:00.980Z,11.87
2018-05-13T01:52:28.580Z,12.00
2018-05-13T01:54:56.530Z,12.07
2018-05-13T01:57:24.093Z,12.18
2018-05-13T01:59:51.638Z,10.90
2018-05-13T02:02:19.189Z,11.13
2018-05-13T02:04:46.747Z,10.65
2018-05-13T02:07:14.337Z,10.87
2018-05-13T02:09:41.922Z,11.27
2018-05-13T02:12:09.508Z,10.93
2018-05-13T02:14:37.078Z,10.23
2018-05-13T02:17:04.693Z,10.30
2018-05-13T02:19:33.140Z,9.40
2018-05-13T02:22:01.641Z,9.97
2018-05-13T02:24:29.226Z,10.50
2018-05-13T02:26:57.192Z,10.43
2018-05-13T02:29:25.170Z,9.40
2018-05-13T02:31:53.663Z,9.73
2018-05-13T02:34:21.252Z,9.82
2018-05-13T02:36:48.848Z,10.25
2018-05-13T02:39:16.775Z,10.00
2018-05-13T02:41:44.316Z,10.07
2018-05-13T02:44:11.937Z,11.05
2018-05-13T02:46:39.514Z,11.60
2018-05-13T02:49:07.068Z,10.47
2018-05-13T02:51:34.626Z,10.90
2018-05-13T02:54:02.565Z,10.03
2018-05-13T02:56:30.142Z,10.00
2018-05-13T02:58:58.104Z,10.80
2018-05-13T03:01:26.081Z,10.95
2018-05-13T03:03:54.002Z,11.03
2018-05-13T03:06:22.207Z,11.57
2018-05-13T03:08:49.901Z,10.57
2018-05-13T03:11:17.512Z,11.38
2018-05-13T03:13:45.057Z,12.83
2018-05-13T03:16:12.611Z,11.30
2018-05-13T03:18:40.156Z,11.63
2018-05-13T03:21:07.724Z,11.53
2018-05-13T03:23:35.527Z,11.95
2018-05-13T03:26:03.088Z,12.30
2018-05-13T03:28:30.720Z,12.97
2018-05-13T03:30:58.346Z,16.30
2018-05-13T03:33:26.325Z,15.53
2018-05-13T03:35:53.881Z,16.23
2018-05-13T03:38:21.432Z,16.50
2018-05-13T03:40:49.007Z,16.90
2018-05-13T03:43:16.566Z,15.77
2018-05-13T03:45:44.129Z,16.60
2018-05-13T03:48:11.672Z,16.87
2018-05-13T03:50:40.355Z,15.30
2018-05-13T03:53:08.343Z,17.00
2018-05-13T03:55:35.934Z,16.63
2018-05-13T03:58:03.473Z,15.10
2018-05-13T04:00:31.043Z,16.20
2018-05-13T04:02:58.595Z,15.77
2018-05-13T04:05:26.174Z,14.50
2018-05-13T04:11:17.650Z,16.30
2018-05-13T04:13:56.916Z,16.07
2018-05-13T04:16:24.507Z,15.17
2018-05-13T04:18:52.430Z,16.53
2018-05-13T04:21:20.368Z,15.17
2018-05-13T04:23:48.708Z,15.83
2018-05-13T04:26:16.272Z,17.30
2018-05-13T04:28:43.862Z,18.10
2018-05-13T04:31:11.403Z,18.67
2018-05-13T04:33:38.959Z,18.73
2018-05-13T04:36:07.111Z,18.17
2018-05-13T04:38:34.648Z,19.13
2018-05-13T04:41:02.200Z,19.10
2018-05-13T04:43:30.148Z,19.48
2018-05-13T04:45:58.051Z,18.37
2018-05-13T04:48:25.608Z,17.07
2018-05-13T04:50:53.534Z,17.20
2018-05-13T04:53:21.649Z,15.75
2018-05-13T04:55:49.568Z,16.17
2018-05-13T04:58:17.133Z,17.93
2018-05-13T05:00:44.700Z,16.73
2018-05-13T05:03:12.760Z,16.70
2018-05-13T05:05:40.362Z,17.43
2018-05-13T05:08:07.912Z,17.65
2018-05-13T05:10:36.343Z,15.73
2018-05-13T05:13:03.922Z,16.60
2018-05-13T05:15:31.480Z,18.20
2018-05-13T05:17:59.324Z,18.67
2018-05-13T05:20:26.885Z,18.95
2018-05-13T05:22:54.430Z,18.90
2018-05-13T05:25:22.088Z,21.20
2018-05-13T05:27:49.682Z,21.45
2018-05-13T05:30:17.280Z,21.40
2018-05-13T05:32:45.543Z,22.37
2018-05-13T05:35:13.131Z,22.53
2018-05-13T05:37:41.634Z,22.20
2018-05-13T05:40:09.307Z,21.30
2018-05-13T05:42:36.856Z,22.48
2018-05-13T05:45:05.157Z,22.10
2018-05-13T05:47:32.721Z,22.52
2018-05-13T05:50:00.296Z,24.20
2018-05-13T05:52:27.879Z,22.93
2018-05-13T05:54:55.444Z,22.43
2018-05-13T05:57:23.085Z,22.13
2018-05-13T05:59:51.040Z,23.83
2018-05-13T06:02:19.279Z,22.55
2018-05-13T06:04:46.890Z,23.70
2018-05-13T06:07:14.463Z,22.63
2018-05-13T06:09:42.464Z,24.08
2018-05-13T06:12:10.623Z,21.70
2018-05-13T06:14:38.114Z,21.27
2018-05-13T06:17:06.558Z,21.10
2018-05-13T06:19:34.132Z,21.45
2018-05-13T06:22:01.688Z,23.13
2018-05-13T06:24:29.270Z,21.60
2018-05-13T06:26:56.827Z,21.77
2018-05-13T06:29:24.376Z,22.70
2018-05-13T06:31:52.057Z,21.30
2018-05-13T06:34:19.986Z,20.85
2018-05-13T06:36:47.567Z,21.33
2018-05-13T06:39:15.468Z,21.03
2018-05-13T06:41:43.129Z,18.43
2018-05-13T06:44:10.707Z,18.27
2018-05-13T06:46:38.313Z,17.77
2018-05-13T06:49:05.890Z,18.60
2018-05-13T06:51:33.986Z,16.75
2018-05-13T06:54:01.464Z,17.50
2018-05-13T06:56:29.440Z,17.90
2018-05-13T06:58:57.460Z,17.93
2018-05-13T07:01:25.075Z,16.00
2018-05-13T07:03:52.605Z,18.60
2018-05-13T07:06:20.209Z,18.23
2018-05-13T07:08:47.844Z,17.00
2018-05-13T07:11:15.395Z,16.90
2018-05-13T07:13:43.400Z,17.47
2018-05-13T07:16:11.938Z,15.93
2018-05-13T07:18:40.356Z,15.80
2018-05-13T07:21:08.378Z,16.73
2018-05-13T07:23:36.905Z,17.23
2018-05-13T07:26:04.879Z,18.03
2018-05-13T07:28:32.841Z,15.77
2018-05-13T07:31:00.826Z,16.15
2018-05-13T07:33:28.459Z,14.47
2018-05-13T07:35:56.042Z,14.70
2018-05-13T07:38:23.982Z,15.63
2018-05-13T07:40:51.544Z,14.47
2018-05-13T07:43:19.803Z,15.00
2018-05-13T07:45:47.311Z,15.57
2018-05-13T07:48:14.884Z,14.57
2018-05-13T07:50:42.490Z,14.20
2018-05-13T07:53:10.049Z,16.20
2018-05-13T07:55:37.607Z,16.33
2018-05-13T07:58:05.222Z,16.05
2018-05-13T08:00:32.794Z,16.27
2018-05-13T08:03:00.349Z,15.17
2018-05-13T08:05:28.891Z,17.92
2018-05-13T08:07:56.857Z,18.27
2018-05-13T08:10:24.813Z,16.10
2018-05-13T08:12:52.395Z,16.70
2018-05-13T08:15:20.408Z,17.67
2018-05-13T08:17:48.017Z,19.00
2018-05-13T08:20:15.636Z,19.33
2018-05-13T08:22:43.108Z,18.10
2018-05-13T08:25:10.711Z,16.75
2018-05-13T08:27:38.984Z,18.12
2018-05-13T08:30:06.528Z,17.40
2018-05-13T08:32:34.453Z,15.63
2018-05-13T08:35:02.017Z,16.23
2018-05-13T08:37:29.570Z,15.90
2018-05-13T08:39:57.161Z,15.77
2018-05-13T08:42:24.728Z,16.30
2018-05-13T08:44:52.279Z,15.70
2018-05-13T08:47:20.624Z,16.60
2018-05-13T08:49:48.195Z,16.20
2018-05-13T08:52:15.757Z,17.25
2018-05-13T08:54:43.336Z,15.37
2018-05-13T08:57:10.900Z,16.30
2018-05-13T08:59:38.514Z,16.55
2018-05-13T09:02:06.044Z,14.97
2018-05-13T09:04:33.976Z,15.77
2018-05-13T09:07:01.536Z,16.20
2018-05-13T09:09:29.150Z,14.90
2018-05-13T09:11:56.692Z,14.48
2018-05-13T09:14:24.425Z,15.00
2018-05-13T09:16:52.011Z,14.27
2018-05-13T09:19:20.037Z,15.77
2018-05-13T09:21:47.605Z,13.15
2018-05-13T09:24:15.192Z,13.00
2018-05-13T09:26:42.884Z,15.20
2018-05-13T09:29:10.444Z,14.27
2018-05-13T09:31:38.009Z,14.30
2018-05-13T09:34:05.577Z,15.02
2018-05-13T09:36:33.160Z,14.10
2018-05-13T09:39:00.735Z,14.37
2018-05-13T09:41:28.764Z,15.57
2018-05-13T09:43:56.334Z,13.30
2018-05-13T09:46:23.905Z,14.55
2018-05-13T09:48:51.514Z,14.60
2018-05-13T09:51:19.499Z,15.83
2018-05-13T09:53:47.041Z,15.43
2018-05-13T09:56:14.676Z,14.23
2018-05-13T09:58:43.295Z,13.70
2018-05-13T10:01:11.301Z,13.75
2018-05-13T10:03:40.556Z,14.00
2018-05-13T10:06:08.955Z,14.60
2018-05-13T10:08:36.540Z,14.18
2018-05-13T10:11:04.071Z,13.00
2018-05-13T10:13:31.669Z,14.40
2018-05-13T10:15:59.221Z,14.53
2018-05-13T10:18:26.773Z,13.30
2018-05-13T10:20:54.379Z,15.20
2018-05-13T10:23:22.032Z,14.43
2018-05-13T10:25:49.585Z,15.77
2018-05-13T10:28:17.174Z,13.77
2018-05-13T10:30:45.187Z,15.40
2018-05-13T10:33:12.752Z,15.02
2018-05-13T10:35:40.330Z,14.20
2018-05-13T10:38:07.891Z,12.30
2018-05-13T10:40:35.476Z,14.13
2018-05-13T10:43:03.039Z,13.23
2018-05-13T10:45:30.689Z,12.07
2018-05-13T10:47:58.234Z,13.27
2018-05-13T10:50:29.424Z,11.60
2018-05-13T10:52:57.722Z,12.20
2018-05-13T10:55:25.399Z,13.30
2018-05-13T10:57:53.061Z,12.57
2018-05-13T11:00:22.270Z,11.32
2018-05-13T11:02:50.549Z,11.20
2018-05-13T11:05:18.180Z,11.33
2018-05-13T11:07:45.789Z,11.30
2018-05-13T11:10:13.380Z,10.00
2018-05-13T11:12:41.311Z,9.53
2018-05-13T11:15:08.858Z,8.50
2018-05-13T11:17:36.477Z,10.40
2018-05-13T11:20:04.043Z,8.80
2018-05-13T11:22:31.613Z,8.53
2018-05-13T11:24:59.178Z,8.65
2018-05-13T11:27:26.740Z,8.80
2018-05-13T11:29:54.344Z,8.13
2018-05-13T11:32:21.907Z,7.97
2018-05-13T11:34:49.480Z,8.10
2018-05-13T11:37:17.033Z,7.67
2018-05-13T11:39:44.593Z,8.50
2018-05-13T11:42:12.538Z,8.13
2018-05-13T11:44:40.082Z,7.60
2018-05-13T11:47:07.642Z,7.93
2018-05-13T11:49:35.856Z,7.62
2018-05-13T11:52:03.409Z,8.10
2018-05-13T11:54:31.357Z,8.18
2018-05-13T11:56:58.908Z,7.73
2018-05-13T11:59:26.516Z,7.63
2018-05-13T12:01:54.479Z,8.27
2018-05-13T12:04:22.469Z,7.47
2018-05-13T12:06:50.020Z,8.17
2018-05-13T12:09:18.069Z,8.30
2018-05-13T12:11:46.283Z,7.82
2018-05-13T12:14:19.625Z,8.15
2018-05-13T12:16:47.965Z,8.47
2018-05-13T12:19:18.225Z,8.70
2018-05-13T12:21:45.785Z,7.05
2018-05-13T12:24:13.611Z,8.97
2018-05-13T12:26:41.165Z,8.13
2018-05-13T12:29:08.767Z,7.83
2018-05-13T12:31:36.329Z,8.10
2018-05-13T12:34:03.840Z,7.80
2018-05-13T12:36:31.419Z,7.22
2018-05-13T12:38:58.971Z,6.87
2018-05-13T12:41:26.537Z,6.17
2018-05-13T12:43:54.102Z,7.85
2018-05-13T12:46:21.649Z,7.17
2018-05-13T12:48:49.235Z,6.00
2018-05-13T12:51:16.785Z,7.12
2018-05-13T12:53:44.348Z,7.67
2018-05-13T12:56:11.991Z,6.50
2018-05-13T12:58:39.478Z,6.90
2018-05-13T13:01:07.043Z,7.63
2018-05-13T13:03:35.578Z,6.73
2018-05-13T13:06:03.120Z,6.90
2018-05-13T13:08:30.719Z,6.95
2018-05-13T13:10:58.273Z,5.90
2018-05-13T13:13:26.783Z,6.67
2018-05-13T13:15:54.380Z,7.10
2018-05-13T13:20:57.644Z,5.10
2018-05-13T13:23:25.227Z,5.15
2018-05-13T13:25:52.880Z,5.40
2018-05-13T13:28:20.814Z,4.70
2018-05-13T13:30:49.974Z,5.00
2018-05-13T13:33:17.563Z,4.83
2018-05-13T13:35:45.166Z,4.83
2018-05-13T13:38:13.646Z,4.83
2018-05-13T13:40:41.239Z,4.63
2018-05-13T13:43:09.185Z,4.67
2018-05-13T13:45:36.749Z,5.00
2018-05-13T13:48:04.867Z,4.50
2018-05-13T13:50:32.412Z,5.15
2018-05-13T13:53:00.013Z,4.60
2018-05-13T13:55:27.604Z,4.63
2018-05-13T13:57:55.576Z,4.57
2018-05-13T14:00:23.553Z,4.95
2018-05-13T14:02:51.531Z,4.70
2018-05-13T14:05:19.079Z,5.50
2018-05-13T14:07:47.099Z,4.97
2018-05-13T14:10:14.690Z,4.33
2018-05-13T14:12:42.324Z,5.30
2018-05-13T14:15:09.868Z,4.78
2018-05-13T14:17:37.472Z,4.50
2018-05-13T14:20:05.178Z,4.17
2018-05-13T14:22:32.593Z,4.17
2018-05-13T14:25:00.152Z,4.03
2018-05-13T14:27:27.736Z,4.00
2018-05-13T14:29:55.324Z,3.83
2018-05-13T14:32:22.889Z,3.93
2018-05-13T14:34:50.586Z,3.70
2018-05-13T14:37:18.134Z,4.63
2018-05-13T14:39:45.802Z,4.53
2018-05-13T14:42:13.399Z,5.30
2018-05-13T14:44:41.396Z,4.05
2018-05-13T14:47:08.956Z,4.40
2018-05-13T14:49:37.243Z,4.97
2018-05-13T14:52:04.809Z,4.50
2018-05-13T14:54:32.391Z,4.50
2018-05-13T14:57:00.036Z,4.43
2018-05-13T14:59:27.592Z,4.53
2018-05-13T15:01:55.122Z,5.60
2018-05-13T15:04:22.753Z,5.10
2018-05-13T15:06:50.705Z,5.57
2018-05-13T15:09:18.343Z,5.80
2018-05-13T15:11:45.936Z,5.65
2018-05-13T15:14:14.561Z,5.13
2018-05-13T15:16:42.215Z,5.03
2018-05-13T15:19:09.663Z,5.50
2018-05-13T15:21:37.250Z,6.00
2018-05-13T15:24:04.808Z,5.32
2018-05-13T15:26:32.355Z,5.10
2018-05-13T15:29:00.032Z,5.17
2018-05-13T15:31:27.507Z,5.60
2018-05-13T15:33:55.086Z,5.03
2018-05-13T15:36:23.452Z,5.50
2018-05-13T15:38:51.017Z,5.40
2018-05-13T15:41:18.636Z,5.15
2018-05-13T15:43:46.228Z,5.50
2018-05-13T15:46:13.809Z,5.30
2018-05-13T15:48:41.393Z,4.70
2018-05-13T15:51:09.332Z,5.57
2018-05-13T15:53:37.079Z,4.57
2018-05-13T15:56:04.728Z,5.37
2018-05-13T15:58:32.307Z,4.97
2018-05-13T16:00:59.851Z,5.40
2018-05-13T16:03:27.543Z,5.00
2018-05-13T16:05:55.121Z,5.37
2018-05-13T16:08:24.580Z,6.00
2018-05-13T16:10:52.153Z,5.87
2018-05-13T16:13:19.796Z,5.40
2018-05-13T16:15:47.371Z,5.60
2018-05-13T16:18:14.936Z,5.50
2018-05-13T16:20:42.523Z,6.37
2018-05-13T16:23:10.132Z,5.80
2018-05-13T16:25:37.878Z,5.80
2018-05-13T16:28:05.809Z,6.12
2018-05-13T16:30:33.403Z,5.40
2018-05-13T16:33:01.009Z,6.80
2018-05-13T16:35:28.602Z,7.03
2018-05-13T16:37:57.205Z,7.70
2018-05-13T16:40:25.226Z,9.40
2018-05-13T16:42:52.840Z,10.60
2018-05-13T16:45:20.813Z,10.90
2018-05-13T16:47:48.450Z,10.40
2018-05-13T16:50:16.453Z,12.27
2018-05-13T16:52:44.339Z,10.95
2018-05-13T16:55:11.883Z,11.57
2018-05-13T16:57:39.487Z,11.50
2018-05-13T17:00:07.036Z,13.48
2018-05-13T17:02:34.648Z,12.18
2018-05-13T17:05:02.394Z,12.70
2018-05-13T17:07:30.190Z,12.33
2018-05-13T17:09:57.748Z,12.40
2018-05-13T17:12:26.004Z,13.40
2018-05-13T17:14:53.571Z,12.75
2018-05-13T17:17:22.843Z,12.50
2018-05-13T17:19:50.376Z,13.40
2018-05-13T17:22:17.961Z,13.00
2018-05-13T17:24:45.595Z,12.53
2018-05-13T17:27:13.225Z,11.83
2018-05-13T17:29:40.792Z,13.27
2018-05-13T17:32:11.717Z,12.30
2018-05-13T17:34:39.300Z,12.70
2018-05-13T17:37:06.929Z,13.27
2018-05-13T17:39:34.529Z,13.33
2018-05-13T17:42:02.086Z,14.13
2018-05-13T17:44:30.022Z,14.07
2018-05-13T17:46:57.955Z,13.67
2018-05-13T17:49:25.514Z,14.80
2018-05-13T17:51:53.123Z,14.70
2018-05-13T17:54:20.658Z,15.30
2018-05-13T17:56:48.604Z,15.73
2018-05-13T17:59:16.176Z,15.80
2018-05-13T18:01:43.735Z,16.43
2018-05-13T18:04:11.301Z,17.13
2018-05-13T18:06:38.853Z,17.25
2018-05-13T18:09:06.817Z,15.53
2018-05-13T18:11:34.465Z,17.30
2018-05-13T18:14:02.043Z,17.77
2018-05-13T18:16:29.607Z,17.00
2018-05-13T18:18:57.597Z,16.30
2018-05-13T18:21:25.723Z,16.90
2018-05-13T18:23:53.267Z,16.23
2018-05-13T18:26:20.860Z,17.33
2018-05-13T18:28:48.428Z,16.40
2018-05-13T18:31:16.208Z,15.43
2018-05-13T18:33:44.169Z,14.50
2018-05-13T18:36:12.235Z,15.53
2018-05-13T18:38:39.870Z,13.50
2018-05-13T18:41:07.449Z,15.57
2018-05-13T18:43:35.463Z,12.50
2018-05-13T18:46:03.012Z,14.25
2018-05-13T18:48:30.875Z,14.13
2018-05-13T18:50:58.473Z,13.97
2018-05-13T18:53:26.049Z,14.90
2018-05-13T18:55:53.657Z,14.43
2018-05-13T18:58:21.588Z,15.07
2018-05-13T19:00:49.206Z,14.43
2018-05-13T19:03:17.066Z,14.93
2018-05-13T19:05:44.655Z,15.37
2018-05-13T19:08:12.220Z,15.53
2018-05-13T19:10:39.977Z,15.10
2018-05-13T19:13:07.568Z,14.37
2018-05-13T19:15:35.133Z,15.80
2018-05-13T19:18:03.093Z,14.40
2018-05-13T19:20:30.730Z,14.63
2018-05-13T19:22:58.308Z,15.05
2018-05-13T19:25:27.983Z,14.15
2018-05-13T19:27:58.387Z,13.18
2018-05-13T19:30:26.034Z,13.13
2018-05-13T19:32:54.110Z,13.60
2018-05-13T19:35:22.129Z,12.90
2018-05-13T19:40:25.753Z,12.70
2018-05-13T19:42:54.573Z,12.47
2018-05-13T19:45:22.832Z,12.17
2018-05-13T19:47:50.475Z,12.03
2018-05-13T19:50:18.121Z,11.57
2018-05-13T19:52:45.716Z,11.00
2018-05-13T19:55:13.654Z,10.60
2018-05-13T19:57:41.227Z,12.07
2018-05-13T20:00:08.784Z,11.27
2018-05-13T20:02:36.392Z,10.43
2018-05-13T20:05:04.571Z,10.30
2018-05-13T20:07:32.151Z,13.20
2018-05-13T20:10:00.136Z,13.37
2018-05-13T20:12:27.727Z,12.87
2018-05-13T20:14:55.522Z,14.83
2018-05-13T20:17:23.202Z,15.13
2018-05-13T20:19:50.976Z,15.63
2018-05-13T20:22:18.761Z,14.73
2018-05-13T20:24:46.653Z,14.80
2018-05-13T20:27:14.725Z,12.77
2018-05-13T20:29:42.302Z,14.43
2018-05-13T20:32:10.282Z,14.47
2018-05-13T20:34:38.317Z,12.37
2018-05-13T20:37:06.197Z,12.60
2018-05-13T20:39:33.869Z,14.43
2018-05-13T20:42:02.529Z,13.43
2018-05-13T20:44:30.175Z,16.00
2018-05-13T20:46:57.760Z,15.13
2018-05-13T20:49:25.404Z,15.90
2018-05-13T20:51:53.528Z,18.87
2018-05-13T20:54:22.324Z,17.60
2018-05-13T20:56:49.974Z,18.40
2018-05-13T20:59:17.934Z,18.43
2018-05-13T21:01:45.892Z,16.73
2018-05-13T21:04:13.879Z,16.60
2018-05-13T21:06:42.013Z,16.37
2018-05-13T21:09:10.436Z,14.75
2018-05-13T21:11:38.070Z,16.67
2018-05-13T21:16:54.789Z,13.53
2018-05-13T21:22:34.080Z,14.20
2018-05-13T21:28:15.135Z,14.00
2018-05-13T21:55:50.937Z,14.10
2018-05-13T21:58:24.927Z,15.33
2018-05-13T22:00:53.324Z,15.23
2018-05-13T22:03:21.008Z,15.80
2018-05-13T22:05:48.594Z,15.07
2018-05-13T22:08:16.177Z,15.00
2018-05-13T22:10:44.685Z,13.75
2018-05-13T22:13:12.312Z,13.70
2018-05-13T22:15:40.967Z,14.87
2018-05-13T22:18:08.950Z,14.85
2018-05-13T22:20:36.911Z,14.70
2018-05-13T22:23:04.494Z,14.13
2018-05-13T22:25:32.045Z,15.15
2018-05-13T22:28:00.145Z,14.87
2018-05-13T22:30:27.760Z,14.57
2018-05-13T22:32:55.465Z,15.40
2018-05-13T22:35:26.159Z,15.45
2018-05-13T22:37:54.623Z,16.43
2018-05-13T22:40:22.319Z,16.97
2018-05-13T22:42:50.943Z,16.96
2018-05-13T22:45:19.483Z,16.67
2018-05-13T22:47:48.434Z,18.40
2018-05-13T22:50:16.521Z,19.40
2018-05-13T22:52:44.069Z,16.90
2018-05-13T22:55:12.006Z,18.05
2018-05-13T23:00:17.839Z,17.17
2018-05-13T23:02:46.856Z,17.63
2018-05-13T23:05:14.540Z,19.47
2018-05-13T23:07:43.197Z,17.10
2018-05-13T23:10:10.740Z,19.08
2018-05-13T23:12:40.782Z,16.70
2018-05-13T23:15:09.569Z,16.83
2018-05-13T23:17:38.847Z,17.27
2018-05-13T23:20:13.608Z,16.93
2018-05-13T23:29:35.638Z,13.83
2018-05-13T23:32:03.985Z,13.20
2018-05-13T23:34:44.574Z,13.83
2018-05-13T23:46:28.439Z,12.57
2018-05-13T23:48:58.198Z,12.00
2018-05-13T23:51:36.724Z,13.43
2018-05-13T23:57:18.596Z,13.50
